Time;durP1;ratioP1;P1;durP2;ratioP2;P2;SDS_P1;SDS_P2;PMS_P1;PMS_P2;Temp;Humidity;BMP_temperature;BMP_pressure;BME280_temperature;BME280_humidity;BME280_pressure;Samples;Min_cycle;Max_cycle;Signal;HPM_P1;HPM_P2
2022/04/18 00:01:00;;;;;;;;;;;;;;;;;;2074095;28;20354;-81
2022/04/18 00:02:02;;;;;;;;;;;;;;;;;;2074375;28;19934;-82
2022/04/18 00:03:04;;;;;;;;;;;;;;;;;;2065588;28;19914;-81
2022/04/18 00:04:12;;;;;;;;;;;;;;;;;;2065604;28;20365;-80
2022/04/18 00:05:17;;;;;;;;;;;;;;;;;;2058082;28;20354;-81
2022/04/18 00:06:19;;;;;;;;;;;;;;;;;;2066990;28;19920;-81
2022/04/18 00:07:22;;;;;;;;;;;;;;;;;;2065581;28;19914;-81
2022/04/18 00:08:25;;;;;;;;;;;;;;;;;;2065925;28;19918;-82
2022/04/18 00:09:29;;;;;;;;;;;;;;;;;;2065538;28;20024;-81
2022/04/18 00:10:31;;;;;;;;;;;;;;;;;;2065552;28;20035;-81
2022/04/18 00:11:35;;;;;;;;;;;;;;;;;;2065713;28;19928;-82
2022/04/18 00:12:35;;;;;;;;;;;;;;;;;;2074173;28;19923;-82
2022/04/18 00:13:38;;;;;;;;;;;;;;;;;;2065505;28;20418;-81
2022/04/18 00:14:38;;;;;;;;;;;;;;;;;;2065478;28;20033;-81
2022/04/18 00:15:43;;;;;;;;;;;;;;;;;;2065774;28;20407;-81
2022/04/18 00:16:44;;;;;;;;;;;;;;;;;;2065529;28;19914;-81
2022/04/18 00:17:54;;;;;;;;;;;;;;;;;;2065561;28;20365;-81
2022/04/18 00:18:56;;;;;;;;;;;;;;;;;;2066788;28;20358;-82
2022/04/18 00:19:57;;;;;;;;;;;;;;;;;;2074137;28;20326;-82
2022/04/18 00:20:57;;;;;;;;;;;;;;;;;;2074185;28;19913;-82
2022/04/18 00:21:59;;;;;;;;;;;;;;;;;;2074242;28;20255;-81
2022/04/18 00:23:02;;;;;;;;;;;;;;;;;;2065488;28;20409;-81
2022/04/18 00:24:02;;;;;;;;;;;;;;;;;;2065780;28;19914;-82
2022/04/18 00:25:03;;;;;;;;;;;;;;;;;;2074019;28;19914;-82
2022/04/18 00:26:03;;;;;;;;;;;;;;;;;;2065606;28;19992;-81
2022/04/18 00:27:04;;;;;;;;;;;;;;;;;;2065463;28;19914;-80
2022/04/18 00:28:05;;;;;;;;;;;;;;;;;;2073975;28;20000;-81
2022/04/18 00:29:05;;;;;;;;;;;;;;;;;;2074110;28;20420;-82
2022/04/18 00:30:06;;;;;;;;;;;;;;;;;;2074099;28;20360;-80
2022/04/18 00:31:12;;;;;;;;;;;;;;;;;;2074074;28;20346;-81
2022/04/18 00:32:12;;;;;;;;;;;;;;;;;;2065382;28;19952;-82
2022/04/18 00:33:15;;;;;;;;;;;;;;;;;;2065366;28;19980;-81
2022/04/18 00:34:16;;;;;;;;;;;;;;;;;;2065546;28;19964;-82
2022/04/18 00:35:39;;;;;;;;;;;;;;;;;;2057298;28;20396;-81
2022/04/18 00:36:41;;;;;;;;;;;;;;;;;;2068661;28;20313;-82
2022/04/18 00:38:30;;;;;;;;;;;;;;;;;;;;;
2022/04/18 00:39:30;;;;;;;;;;;;;;;;;;2056687;28;19933;-80
2022/04/18 00:40:38;;;;;;;;;;;;;;;;;;2056852;28;19918;-80
2022/04/18 00:41:38;;;;;;;;;;;;;;;;;;2048372;29;19914;-80
2022/04/18 00:42:44;;;;;;;;;;;;;;;;;;2048224;29;19922;-81
2022/04/18 00:43:48;;;;;;;;;;;;;;;;;;2056171;28;19925;-80
2022/04/18 00:44:48;;;;;;;;;;;;;;;;;;2054255;28;19914;-80
2022/04/18 00:45:49;;;;;;;;;;;;;;;;;;2073524;28;19925;-79
2022/04/18 00:46:49;;;;;;;;;;;;;;;;;;2065323;28;19968;-80
2022/04/18 00:47:50;;;;;;;;;;;;;;;;;;2065517;28;20367;-84
2022/04/18 00:48:50;;;;;;;;;;;;;;;;;;2065327;28;19932;-80
2022/04/18 00:50:05;;;;;;;;;;;;;;;;;;2065393;28;20405;-82
2022/04/18 00:51:11;;;;;;;;;;;;;;;;;;2073580;28;20397;-79
2022/04/18 00:52:11;;;;;;;;;;;;;;;;;;2073804;28;20365;-80
2022/04/18 00:53:14;;;;;;;;;;;;;;;;;;2065235;28;19914;-81
2022/04/18 00:55:38;;;;;;;;;;;;;;;;;;2068295;28;19914;-80
2022/04/18 00:56:43;;;;;;;;;;;;;;;;;;2073773;28;20346;-81
2022/04/18 00:57:52;;;;;;;;;;;;;;;;;;2065382;28;19917;-80
2022/04/18 00:58:53;;;;;;;;;;;;;;;;;;2066431;28;19913;-80
2022/04/18 00:59:53;;;;;;;;;;;;;;;;;;2074087;28;20281;-78
2022/04/18 01:00:53;;;;;;;;;;;;;;;;;;2073765;28;19995;-80
2022/04/18 01:01:54;;;;;;;;;;;;;;;;;;2065065;28;19941;-77
2022/04/18 01:02:54;;;;;;;;;;;;;;;;;;2065284;28;19933;-81
2022/04/18 01:03:57;;;;;;;;;;;;;;;;;;2073684;28;19967;-80
2022/04/18 01:04:57;;;;;;;;;;;;;;;;;;2074043;28;19923;-79
2022/04/18 01:06:01;;;;;;;;;;;;;;;;;;2073884;28;19917;-80
2022/04/18 01:07:02;;;;;;;;;;;;;;;;;;2073869;28;19913;-80
2022/04/18 01:08:04;;;;;;;;;;;;;;;;;;2073666;28;19913;-80
2022/04/18 01:09:10;;;;;;;;;;;;;;;;;;2073691;28;19914;-80
2022/04/18 01:10:13;;;;;;;;;;;;;;;;;;2073803;28;19925;-80
2022/04/18 01:11:23;;;;;;;;;;;;;;;;;;2073822;28;19985;-80
2022/04/18 01:12:39;;;;;;;;;;;;;;;;;;;;;
2022/04/18 01:13:47;;;;;;;;;;;;;;;;;;2067273;28;20350;-80
2022/04/18 01:14:58;;;;;;;;;;;;;;;;;;2065154;28;19914;-80
2022/04/18 01:16:07;;;;;;;;;;;;;;;;;;2069342;28;20001;-79
2022/04/18 01:17:07;;;;;;;;;;;;;;;;;;2064947;28;19914;-81
2022/04/18 01:18:22;;;;;;;;;;;;;;;;;;2056869;28;19982;-80
2022/04/18 01:19:27;;;;;;;;;;;;;;;;;;2067041;28;19940;-79
2022/04/18 01:20:35;;;;;;;;;;;;;;;;;;2076291;28;19925;-80
2022/04/18 01:21:41;;;;;;;;;;;;;;;;;;2073740;28;20382;-80
2022/04/18 01:22:44;;;;;;;;;;;;;;;;;;2073520;28;19971;-80
2022/04/18 01:23:47;;;;;;;;;;;;;;;;;;2073290;28;19913;-80
2022/04/18 01:29:22;;;;;;;;;;;;;;;;;;2073880;28;19914;-80
2022/04/18 01:30:32;;;;;;;;;;;;;;;;;;2073602;28;20003;-80
2022/04/18 01:31:40;;;;;;;;;;;;;;;;;;2076331;28;19917;-79
2022/04/18 01:33:00;;;;;;;;;;;;;;;;;;2073807;28;19917;-80
2022/04/18 01:34:10;;;;;;;;;;;;;;;;;;2056882;28;19914;-81
2022/04/18 01:35:13;;;;;;;;;;;;;;;;;;2059264;28;20394;-80
2022/04/18 01:36:16;;;;;;;;;;;;;;;;;;2064804;28;19914;-80
2022/04/18 01:37:37;;;;;;;;;;;;;;;;;;2073407;28;19914;-80
2022/04/18 01:38:47;;;;;;;;;;;;;;;;;;;;;
2022/04/18 01:39:47;;;;;;;;;;;;;;;;;;2073144;28;19921;-79
2022/04/18 01:40:48;;;;;;;;;;;;;;;;;;2073061;28;19917;-80
2022/04/18 01:41:58;;;;;;;;;;;;;;;;;;;;;
2022/04/18 01:43:01;;;;;;;;;;;;;;;;;;2061077;28;19914;-81
2022/04/18 01:44:01;;;;;;;;;;;;;;;;;;2066438;28;19918;-81
2022/04/18 01:45:01;;;;;;;;;;;;;;;;;;2064215;28;19914;-80
2022/04/18 01:46:07;;;;;;;;;;;;;;;;;;2056274;28;19914;-80
2022/04/18 01:47:09;;;;;;;;;;;;;;;;;;2064143;28;19914;-80
2022/04/18 01:48:12;;;;;;;;;;;;;;;;;;2064764;28;19918;-80
2022/04/18 01:49:23;;;;;;;;;;;;;;;;;;2064557;28;19972;-80
2022/04/18 01:50:25;;;;;;;;;;;;;;;;;;2057711;28;20004;-81
2022/04/18 01:51:28;;;;;;;;;;;;;;;;;;2056725;28;19933;-79
2022/04/18 01:52:32;;;;;;;;;;;;;;;;;;2056718;28;19929;-80
2022/04/18 01:53:34;;;;;;;;;;;;;;;;;;2065041;28;19925;-81
2022/04/18 01:54:53;;;;;;;;;;;;;;;;;;2063183;28;19914;-80
2022/04/18 01:55:59;;;;;;;;;;;;;;;;;;2064537;28;19957;-80
2022/04/18 01:57:43;;;;;;;;;;;;;;;;;;2065406;28;19917;-81
2022/04/18 01:58:48;;;;;;;;;;;;;;;;;;2071231;28;19913;-80
2022/04/18 01:59:52;;;;;;;;;;;;;;;;;;2048014;29;19918;-81
2022/04/18 02:00:52;;;;;;;;;;;;;;;;;;2048112;29;19923;-81
2022/04/18 02:02:04;;;;;;;;;;;;;;;;;;2048173;28;19925;-81
2022/04/18 02:03:14;;;;;;;;;;;;;;;;;;2050949;28;20381;-80
2022/04/18 02:04:17;;;;;;;;;;;;;;;;;;2048192;29;19915;-81
2022/04/18 02:05:26;;;;;;;;;;;;;;;;;;2047599;28;20031;-81
2022/04/18 02:06:30;;;;;;;;;;;;;;;;;;2048941;28;20238;-80
2022/04/18 02:07:30;;;;;;;;;;;;;;;;;;2047744;28;20355;-80
2022/04/18 02:08:43;;;;;;;;;;;;;;;;;;2040127;29;19919;-81
2022/04/18 02:09:56;;;;;;;;;;;;;;;;;;2048050;29;20278;-80
2022/04/18 02:10:59;;;;;;;;;;;;;;;;;;2046443;29;20012;-81
2022/04/18 02:12:04;;;;;;;;;;;;;;;;;;2040123;29;19918;-81
2022/04/18 02:13:13;;;;;;;;;;;;;;;;;;2040638;29;19915;-80
2022/04/18 02:14:14;;;;;;;;;;;;;;;;;;2048159;28;20346;-81
2022/04/18 02:15:21;;;;;;;;;;;;;;;;;;2040117;29;19919;-81
2022/04/18 02:16:41;;;;;;;;;;;;;;;;;;2040899;29;19918;-81
2022/04/18 02:17:44;;;;;;;;;;;;;;;;;;2048005;29;19918;-81
2022/04/18 02:18:50;;;;;;;;;;;;;;;;;;2048045;28;19914;-80
2022/04/18 02:19:55;;;;;;;;;;;;;;;;;;2048002;29;19921;-80
2022/04/18 02:21:11;;;;;;;;;;;;;;;;;;2048922;28;19928;-80
2022/04/18 02:22:32;;;;;;;;;;;;;;;;;;2048101;29;19919;-80
2022/04/18 02:23:32;;;;;;;;;;;;;;;;;;2050894;29;20307;-80
2022/04/18 02:24:40;;;;;;;;;;;;;;;;;;2048004;28;19925;-81
2022/04/18 02:26:01;;;;;;;;;;;;;;;;;;2050571;29;19915;-80
2022/04/18 02:27:30;;;;;;;;;;;;;;;;;;2047947;29;19918;-80
2022/04/18 02:28:51;;;;;;;;;;;;;;;;;;;;;
2022/04/18 02:30:21;;;;;;;;;;;;;;;;;;2049344;28;20418;-81
2022/04/18 02:31:23;;;;;;;;;;;;;;;;;;2055538;28;19910;-81
2022/04/18 02:33:53;;;;;;;;;;;;;;;;;;2074411;28;19909;-81
2022/04/18 02:34:53;;;;;;;;;;;;;;;;;;2075734;28;20407;-80
2022/04/18 02:36:06;;;;;;;;;;;;;;;;;;;;;
2022/04/18 02:37:21;;;;;;;;;;;;;;;;;;2074492;28;19914;-80
2022/04/18 02:50:35;;;;;;;;;;;;;;;;;;2580338;22;879862;-80
2022/04/18 02:51:38;;;;;;;;;;;;;;;;;;2603001;22;19915;-82
2022/04/18 02:52:46;;;;;;;;;;;;;;;;;;2613775;22;19993;-81
2022/04/18 02:53:58;;;;;;;;;;;;;;;;;;;;;
2022/04/18 02:55:04;;;;;;;;;;;;;;;;;;2616536;22;20044;-82
2022/04/18 02:56:06;;;;;;;;;;;;;;;;;;2616831;22;19907;-80
2022/04/18 02:57:14;;;;;;;;;;;;;;;;;;2616310;22;20301;-81
2022/04/18 02:58:18;;;;;;;;;;;;;;;;;;2598652;22;20233;-81
2022/04/18 02:59:23;;;;;;;;;;;;;;;;;;2603623;22;19907;-81
2022/04/18 03:00:27;;;;;;;;;;;;;;;;;;2616623;22;20280;-80
2022/04/18 03:01:32;;;;;;;;;;;;;;;;;;2598678;22;20362;-82
2022/04/18 03:02:39;;;;;;;;;;;;;;;;;;2604001;22;19915;-82
2022/04/18 03:03:42;;;;;;;;;;;;;;;;;;2616701;22;19907;-81
2022/04/18 03:04:47;;;;;;;;;;;;;;;;;;2598605;22;19907;-82
2022/04/18 03:05:55;;;;;;;;;;;;;;;;;;2587073;22;19908;-83
2022/04/18 03:07:23;;;;;;;;;;;;;;;;;;2604720;22;19908;-85
2022/04/18 03:08:32;;;;;;;;;;;;;;;;;;2597152;22;19907;-81
2022/04/18 03:09:33;;;;;;;;;;;;;;;;;;2616448;22;20313;-80
2022/04/18 03:12:13;;;;;;;;;;;;;;;;;;2616609;22;19911;-84
2022/04/18 03:13:14;;;;;;;;;;;;;;;;;;2611187;22;19926;-82
2022/04/18 03:14:22;;;;;;;;;;;;;;;;;;2616125;22;19914;-83
2022/04/18 03:15:27;;;;;;;;;;;;;;;;;;2616586;22;19914;-82
2022/04/18 03:16:39;;;;;;;;;;;;;;;;;;2616622;22;19934;-82
2022/04/18 03:17:55;;;;;;;;;;;;;;;;;;2598911;22;19977;-82
2022/04/18 03:18:56;;;;;;;;;;;;;;;;;;2588837;22;19908;-82
2022/04/18 03:21:28;;;;;;;;;;;;;;;;;;2595642;22;19981;-82
2022/04/18 03:22:28;;;;;;;;;;;;;;;;;;2598100;22;19930;-82
2022/04/18 03:23:31;;;;;;;;;;;;;;;;;;2598435;22;19918;-82
2022/04/18 03:24:39;;;;;;;;;;;;;;;;;;2602918;22;20254;-83
2022/04/18 03:25:41;;;;;;;;;;;;;;;;;;2602788;22;19908;-82
2022/04/18 03:26:45;;;;;;;;;;;;;;;;;;2603146;22;20213;-82
2022/04/18 03:27:54;;;;;;;;;;;;;;;;;;2598441;22;20262;-82
2022/04/18 03:29:10;;;;;;;;;;;;;;;;;;2598762;22;20302;-83
2022/04/18 03:30:10;;;;;;;;;;;;;;;;;;2593412;22;19911;-83
2022/04/18 03:31:11;;;;;;;;;;;;;;;;;;2602535;22;19908;-87
2022/04/18 03:32:11;;;;;;;;;;;;;;;;;;2598406;22;20341;-83
2022/04/18 03:33:19;;;;;;;;;;;;;;;;;;2602532;22;19911;-83
2022/04/18 03:34:22;;;;;;;;;;;;;;;;;;2615941;22;19907;-81
2022/04/18 03:39:51;;;;;;;;;;;;;;;;;;2616428;22;19907;-83
2022/04/18 03:40:53;;;;;;;;;;;;;;;;;;2616459;22;19910;-83
2022/04/18 03:41:56;;;;;;;;;;;;;;;;;;2616428;22;19922;-83
2022/04/18 03:43:03;;;;;;;;;;;;;;;;;;2616491;22;19907;-81
2022/04/18 03:44:04;;;;;;;;;;;;;;;;;;2616372;22;19918;-83
2022/04/18 03:45:07;;;;;;;;;;;;;;;;;;2616363;22;19929;-81
2022/04/18 03:46:07;;;;;;;;;;;;;;;;;;2616431;22;19907;-81
2022/04/18 03:47:08;;;;;;;;;;;;;;;;;;2616316;22;19962;-81
2022/04/18 03:48:08;;;;;;;;;;;;;;;;;;2598193;22;19939;-82
2022/04/18 03:49:08;;;;;;;;;;;;;;;;;;2585494;22;19970;-81
2022/04/18 03:50:12;;;;;;;;;;;;;;;;;;2606829;22;20897;-81
2022/04/18 03:51:15;;;;;;;;;;;;;;;;;;2609490;22;20293;-82
2022/04/18 03:52:15;;;;;;;;;;;;;;;;;;2612938;22;19915;-80
2022/04/18 03:53:16;;;;;;;;;;;;;;;;;;2608536;22;20005;-82
2022/04/18 03:54:18;;;;;;;;;;;;;;;;;;2608537;22;19929;-80
2022/04/18 03:55:19;;;;;;;;;;;;;;;;;;2612941;22;20333;-81
2022/04/18 03:56:21;;;;;;;;;;;;;;;;;;2608715;22;20181;-84
2022/04/18 03:57:29;;;;;;;;;;;;;;;;;;2596373;22;19915;-82
2022/04/18 03:58:29;;;;;;;;;;;;;;;;;;2608714;22;19907;-82
2022/04/18 03:59:29;;;;;;;;;;;;;;;;;;2612774;22;20304;-81
2022/04/18 04:00:30;;;;;;;;;;;;;;;;;;2612960;22;20368;-82
2022/04/18 04:01:30;;;;;;;;;;;;;;;;;;2607934;22;19975;-81
2022/04/18 04:02:36;;;;;;;;;;;;;;;;;;2595468;22;19986;-81
2022/04/18 04:03:36;;;;;;;;;;;;;;;;;;2613134;22;19918;-83
2022/04/18 04:04:42;;;;;;;;;;;;;;;;;;2613660;22;19907;-82
2022/04/18 04:06:02;;;;;;;;;;;;;;;;;;2613637;22;20335;-82
2022/04/18 04:07:05;;;;;;;;;;;;;;;;;;2608563;22;20315;-81
2022/04/18 04:08:26;;;;;;;;;;;;;;;;;;;;;
2022/04/18 04:09:26;;;;;;;;;;;;;;;;;;2613153;22;19953;-81
2022/04/18 04:10:32;;;;;;;;;;;;;;;;;;2613523;22;19907;-85
2022/04/18 04:11:52;;;;;;;;;;;;;;;;;;2608498;22;19919;-85
2022/04/18 04:13:03;;;;;;;;;;;;;;;;;;;;;
2022/04/18 04:14:20;;;;;;;;;;;;;;;;;;2613414;22;20002;-81
2022/04/18 04:15:33;;;;;;;;;;;;;;;;;;;;;
2022/04/18 04:16:47;;;;;;;;;;;;;;;;;;2612996;22;20264;-81
2022/04/18 04:19:19;;;;;;;;;;;;;;;;;;2609031;22;19907;-83
2022/04/18 04:20:30;;;;;;;;;;;;;;;;;;2613557;22;19919;-83
2022/04/18 04:21:31;;;;;;;;;;;;;;;;;;2608416;22;19907;-83
2022/04/18 04:22:35;;;;;;;;;;;;;;;;;;2612739;22;20382;-85
2022/04/18 04:23:44;;;;;;;;;;;;;;;;;;2608343;22;20321;-81
2022/04/18 04:25:00;;;;;;;;;;;;;;;;;;2597325;22;19931;-82
2022/04/18 04:26:03;;;;;;;;;;;;;;;;;;2613133;22;19915;-81
2022/04/18 04:27:14;;;;;;;;;;;;;;;;;;2613416;22;19907;-83
2022/04/18 04:28:47;;;;;;;;;;;;;;;;;;;;;
2022/04/18 04:29:58;;;;;;;;;;;;;;;;;;2613217;22;19941;-81
2022/04/18 04:31:09;;;;;;;;;;;;;;;;;;;;;
2022/04/18 04:32:45;;;;;;;;;;;;;;;;;;2612755;22;19907;-83
2022/04/18 04:34:10;;;;;;;;;;;;;;;;;;2600222;22;20004;-80
2022/04/18 04:35:15;;;;;;;;;;;;;;;;;;2600972;22;20340;-84
2022/04/18 04:36:23;;;;;;;;;;;;;;;;;;2612845;22;19923;-84
2022/04/18 04:37:31;;;;;;;;;;;;;;;;;;2612181;22;19965;-84
2022/04/18 04:38:57;;;;;;;;;;;;;;;;;;2596956;22;19907;-83
2022/04/18 04:41:25;;;;;;;;;;;;;;;;;;2609065;22;19914;-82
2022/04/18 04:42:28;;;;;;;;;;;;;;;;;;2610943;22;19922;-84
2022/04/18 04:43:29;;;;;;;;;;;;;;;;;;2608327;22;20301;-83
2022/04/18 04:44:35;;;;;;;;;;;;;;;;;;2612805;22;19953;-83
2022/04/18 04:45:43;;;;;;;;;;;;;;;;;;2608375;22;19934;-84
2022/04/18 04:46:52;;;;;;;;;;;;;;;;;;2601368;22;20010;-82
2022/04/18 04:47:53;;;;;;;;;;;;;;;;;;2612816;22;19907;-84
2022/04/18 04:48:56;;;;;;;;;;;;;;;;;;2608433;22;20111;-81
2022/04/18 04:50:03;;;;;;;;;;;;;;;;;;2612481;22;19907;-82
2022/04/18 04:51:17;;;;;;;;;;;;;;;;;;;;;
2022/04/18 04:52:24;;;;;;;;;;;;;;;;;;2613069;22;19918;-81
2022/04/18 04:53:25;;;;;;;;;;;;;;;;;;2613170;22;19918;-82
2022/04/18 04:54:33;;;;;;;;;;;;;;;;;;2613089;22;20344;-80
2022/04/18 04:55:35;;;;;;;;;;;;;;;;;;2612939;22;20126;-81
2022/04/18 04:56:38;;;;;;;;;;;;;;;;;;2612966;22;19907;-84
2022/04/18 04:57:45;;;;;;;;;;;;;;;;;;2608156;22;19907;-82
2022/04/18 04:58:46;;;;;;;;;;;;;;;;;;2596417;22;19911;-81
2022/04/18 04:59:49;;;;;;;;;;;;;;;;;;2594573;22;19918;-81
2022/04/18 05:00:52;;;;;;;;;;;;;;;;;;2611540;22;19937;-82
2022/04/18 05:01:54;;;;;;;;;;;;;;;;;;2607860;22;20377;-82
2022/04/18 05:02:57;;;;;;;;;;;;;;;;;;2607383;22;20288;-81
2022/04/18 05:03:57;;;;;;;;;;;;;;;;;;2595468;22;19934;-82
2022/04/18 05:04:58;;;;;;;;;;;;;;;;;;2595512;22;19938;-81
2022/04/18 05:06:06;;;;;;;;;;;;;;;;;;2612229;22;20288;-81
2022/04/18 05:07:08;;;;;;;;;;;;;;;;;;2611984;22;19910;-81
2022/04/18 05:08:09;;;;;;;;;;;;;;;;;;2595240;22;19919;-81
2022/04/18 05:09:09;;;;;;;;;;;;;;;;;;2612236;22;19961;-81
2022/04/18 05:10:13;;;;;;;;;;;;;;;;;;2608884;22;19921;-83
2022/04/18 05:11:23;;;;;;;;;;;;;;;;;;2606882;22;19914;-80
2022/04/18 05:12:25;;;;;;;;;;;;;;;;;;2612605;22;19949;-80
2022/04/18 05:13:35;;;;;;;;;;;;;;;;;;2612982;22;19934;-81
2022/04/18 05:14:44;;;;;;;;;;;;;;;;;;2613135;22;19917;-83
2022/04/18 05:15:44;;;;;;;;;;;;;;;;;;2613043;22;19910;-81
2022/04/18 05:16:44;;;;;;;;;;;;;;;;;;2612961;22;19985;-81
2022/04/18 05:17:47;;;;;;;;;;;;;;;;;;2613088;22;19907;-81
2022/04/18 05:21:11;;;;;;;;;;;;;;;;;;;;;
2022/04/18 05:23:22;;;;;;;;;;;;;;;;;;;;;
2022/04/18 05:26:02;;;;;;;;;;;;;;;;;;2568588;23;19915;-81
2022/04/18 05:27:05;;;;;;;;;;;;;;;;;;2579551;22;19907;-80
2022/04/18 05:28:08;;;;;;;;;;;;;;;;;;2608614;22;19907;-81
2022/04/18 05:29:10;;;;;;;;;;;;;;;;;;2607278;22;19911;-80
2022/04/18 05:30:51;;;;;;;;;;;;;;;;;;2594763;22;19911;-82
2022/04/18 05:33:30;;;;;;;;;;;;;;;;;;2543680;23;19913;-81
2022/04/18 05:35:22;;;;;;;;;;;;;;;;;;;;;
2022/04/18 05:38:52;;;;;;;;;;;;;;;;;;;;;
2022/04/18 05:41:13;;;;;;;;;;;;;;;;;;2568655;23;19953;-81
2022/04/18 05:42:15;;;;;;;;;;;;;;;;;;2573053;23;19931;-82
2022/04/18 05:44:55;;;;;;;;;;;;;;;;;;2569050;23;20239;-82
2022/04/18 05:46:06;;;;;;;;;;;;;;;;;;2573578;23;19939;-82
2022/04/18 05:47:07;;;;;;;;;;;;;;;;;;2607837;22;19918;-83
2022/04/18 05:48:17;;;;;;;;;;;;;;;;;;2611617;22;19941;-80
2022/04/18 05:49:18;;;;;;;;;;;;;;;;;;2612857;22;20016;-81
2022/04/18 05:50:33;;;;;;;;;;;;;;;;;;2612602;22;19989;-81
2022/04/18 05:51:33;;;;;;;;;;;;;;;;;;2612661;22;19906;-80
2022/04/18 05:52:34;;;;;;;;;;;;;;;;;;2612533;22;20064;-79
2022/04/18 05:53:34;;;;;;;;;;;;;;;;;;2612752;22;19906;-82
2022/04/18 05:54:39;;;;;;;;;;;;;;;;;;2594956;22;19969;-81
2022/04/18 05:55:42;;;;;;;;;;;;;;;;;;2599151;22;19907;-82
2022/04/18 05:56:43;;;;;;;;;;;;;;;;;;2595022;22;20207;-79
2022/04/18 05:57:45;;;;;;;;;;;;;;;;;;2595619;22;19921;-81
2022/04/18 05:58:46;;;;;;;;;;;;;;;;;;2612684;22;19907;-84
2022/04/18 05:59:46;;;;;;;;;;;;;;;;;;2612450;22;20337;-83
2022/04/18 06:00:49;;;;;;;;;;;;;;;;;;2612678;22;19990;-80
2022/04/18 06:01:49;;;;;;;;;;;;;;;;;;2612578;22;19919;-82
2022/04/18 06:02:55;;;;;;;;;;;;;;;;;;2608979;22;20386;-83
2022/04/18 06:03:56;;;;;;;;;;;;;;;;;;2612616;22;19918;-82
2022/04/18 06:05:09;;;;;;;;;;;;;;;;;;2595055;22;19998;-83
2022/04/18 06:06:15;;;;;;;;;;;;;;;;;;2602182;22;19972;-87
2022/04/18 06:07:15;;;;;;;;;;;;;;;;;;2612681;22;19907;-81
2022/04/18 06:08:31;;;;;;;;;;;;;;;;;;;;;
2022/04/18 06:09:41;;;;;;;;;;;;;;;;;;2612609;22;20233;-83
2022/04/18 06:10:44;;;;;;;;;;;;;;;;;;2612961;22;19986;-83
2022/04/18 06:11:44;;;;;;;;;;;;;;;;;;2594852;22;19907;-82
2022/04/18 06:12:44;;;;;;;;;;;;;;;;;;2599469;22;19939;-80
2022/04/18 06:13:45;;;;;;;;;;;;;;;;;;2608162;22;19918;-80
2022/04/18 06:14:45;;;;;;;;;;;;;;;;;;2594777;22;19977;-81
2022/04/18 06:16:15;;;;;;;;;;;;;;;;;;;;;
2022/04/18 06:17:21;;;;;;;;;;;;;;;;;;2612780;22;19985;-82
2022/04/18 06:18:29;;;;;;;;;;;;;;;;;;2612628;22;20117;-82
2022/04/18 06:19:29;;;;;;;;;;;;;;;;;;2612752;22;19927;-83
2022/04/18 06:22:03;;;;;;;;;;;;;;;;;;;;;
2022/04/18 06:23:03;;;;;;;;;;;;;;;;;;2589322;22;19906;-82
2022/04/18 06:24:04;;;;;;;;;;;;;;;;;;2612581;22;19902;-81
2022/04/18 06:25:05;;;;;;;;;;;;;;;;;;2612519;22;19965;-80
2022/04/18 06:27:54;;;;;;;;;;;;;;;;;;2608505;22;19907;-82
2022/04/18 06:29:02;;;;;;;;;;;;;;;;;;2612295;22;19907;-82
2022/04/18 06:31:35;;;;;;;;;;;;;;;;;;2608225;22;20368;-84
2022/04/18 06:32:36;;;;;;;;;;;;;;;;;;2612302;22;19964;-82
2022/04/18 06:33:55;;;;;;;;;;;;;;;;;;;;;
2022/04/18 06:35:01;;;;;;;;;;;;;;;;;;2603365;22;20310;-83
2022/04/18 06:36:04;;;;;;;;;;;;;;;;;;2595166;22;19953;-80
2022/04/18 06:37:28;;;;;;;;;;;;;;;;;;2595211;22;19907;-83
2022/04/18 06:43:08;;;;;;;;;;;;;;;;;;2608480;22;19915;-82
2022/04/18 06:44:26;;;;;;;;;;;;;;;;;;2599218;22;19990;-83
2022/04/18 06:45:31;;;;;;;;;;;;;;;;;;2603232;22;19907;-79
2022/04/18 06:46:38;;;;;;;;;;;;;;;;;;2612799;22;19911;-80
2022/04/18 06:49:08;;;;;;;;;;;;;;;;;;2599678;22;19930;-80
2022/04/18 06:50:17;;;;;;;;;;;;;;;;;;2611578;22;19981;-81
2022/04/18 06:51:17;;;;;;;;;;;;;;;;;;2595407;22;19934;-81
2022/04/18 06:52:17;;;;;;;;;;;;;;;;;;2595011;22;19922;-81
2022/04/18 06:53:21;;;;;;;;;;;;;;;;;;2599505;22;19917;-78
2022/04/18 06:54:41;;;;;;;;;;;;;;;;;;2612817;22;19993;-81
2022/04/18 06:57:03;;;;;;;;;;;;;;;;;;2612992;22;20294;-81
2022/04/18 06:58:06;;;;;;;;;;;;;;;;;;2612525;22;19975;-81
2022/04/18 06:59:08;;;;;;;;;;;;;;;;;;2594857;22;19907;-82
2022/04/18 07:00:12;;;;;;;;;;;;;;;;;;2595037;22;19911;-81
2022/04/18 07:02:55;;;;;;;;;;;;;;;;;;;;;
2022/04/18 07:03:58;;;;;;;;;;;;;;;;;;2613026;22;19914;-80
2022/04/18 07:05:08;;;;;;;;;;;;;;;;;;;;;
2022/04/18 07:06:19;;;;;;;;;;;;;;;;;;;;;
2022/04/18 07:08:45;;;;;;;;;;;;;;;;;;2596955;22;19930;-81
2022/04/18 07:10:11;;;;;;;;;;;;;;;;;;2612965;22;19918;-79
2022/04/18 07:11:11;;;;;;;;;;;;;;;;;;2595338;22;19945;-81
2022/04/18 07:12:15;;;;;;;;;;;;;;;;;;2594848;22;19918;-81
2022/04/18 07:13:25;;;;;;;;;;;;;;;;;;2599587;22;19911;-81
2022/04/18 07:14:46;;;;;;;;;;;;;;;;;;2610429;22;19985;-82
2022/04/18 07:15:59;;;;;;;;;;;;;;;;;;2612913;22;20014;-81
2022/04/18 07:17:09;;;;;;;;;;;;;;;;;;2612885;22;20288;-82
2022/04/18 07:18:10;;;;;;;;;;;;;;;;;;2612677;22;19935;-81
2022/04/18 07:19:13;;;;;;;;;;;;;;;;;;2595051;22;19990;-81
2022/04/18 07:20:19;;;;;;;;;;;;;;;;;;2582846;22;19915;-80
2022/04/18 07:21:27;;;;;;;;;;;;;;;;;;2600543;22;20330;-81
2022/04/18 07:22:32;;;;;;;;;;;;;;;;;;2612971;22;19925;-81
2022/04/18 07:23:49;;;;;;;;;;;;;;;;;;2599529;22;19907;-83
2022/04/18 07:26:21;;;;;;;;;;;;;;;;;;2595940;22;19922;-81
2022/04/18 07:27:32;;;;;;;;;;;;;;;;;;2595588;22;19907;-81
2022/04/18 07:28:38;;;;;;;;;;;;;;;;;;2597566;22;19907;-81
2022/04/18 07:29:52;;;;;;;;;;;;;;;;;;2600848;22;19907;-82
2022/04/18 07:31:01;;;;;;;;;;;;;;;;;;2613759;22;19999;-81
2022/04/18 07:32:12;;;;;;;;;;;;;;;;;;2613680;22;20300;-80
2022/04/18 07:33:14;;;;;;;;;;;;;;;;;;2609333;22;20320;-79
2022/04/18 07:34:17;;;;;;;;;;;;;;;;;;2611721;22;19918;-81
2022/04/18 07:35:36;;;;;;;;;;;;;;;;;;2613345;22;19911;-81
2022/04/18 07:36:39;;;;;;;;;;;;;;;;;;2596689;22;19907;-82
2022/04/18 07:38:48;;;;;;;;;;;;;;;;;;2600199;22;19982;-82
2022/04/18 07:39:02;;;;;;;;;;;;;;;;;;2609028;22;19907;-81
2022/04/18 07:40:05;;;;;;;;;;;;;;;;;;2613623;22;19941;-83
2022/04/18 07:41:08;;;;;;;;;;;;;;;;;;2613381;22;19919;-82
2022/04/18 07:42:11;;;;;;;;;;;;;;;;;;2613570;22;19906;-82
2022/04/18 07:43:11;;;;;;;;;;;;;;;;;;2613750;22;19911;-82
2022/04/18 07:44:29;;;;;;;;;;;;;;;;;;2613626;22;19907;-82
2022/04/18 07:45:33;;;;;;;;;;;;;;;;;;2595778;22;19907;-79
2022/04/18 07:46:36;;;;;;;;;;;;;;;;;;2583518;22;19908;-81
2022/04/18 07:47:36;;;;;;;;;;;;;;;;;;2595356;22;19907;-82
2022/04/18 07:48:39;;;;;;;;;;;;;;;;;;2583049;23;19911;-81
2022/04/18 07:49:57;;;;;;;;;;;;;;;;;;2600462;22;20304;-81
2022/04/18 07:52:26;;;;;;;;;;;;;;;;;;2613414;22;19907;-82
2022/04/18 07:53:47;;;;;;;;;;;;;;;;;;2595740;22;19918;-82
2022/04/18 07:55:11;;;;;;;;;;;;;;;;;;2599928;22;19993;-81
2022/04/18 07:56:13;;;;;;;;;;;;;;;;;;2608357;22;19961;-81
2022/04/18 07:57:16;;;;;;;;;;;;;;;;;;2608996;22;19938;-81
2022/04/18 07:58:16;;;;;;;;;;;;;;;;;;2613150;22;19934;-81
2022/04/18 07:59:22;;;;;;;;;;;;;;;;;;2613236;22;19907;-81
2022/04/18 08:00:25;;;;;;;;;;;;;;;;;;2599722;22;19911;-81
2022/04/18 08:01:28;;;;;;;;;;;;;;;;;;2583562;22;19917;-81
2022/04/18 08:02:48;;;;;;;;;;;;;;;;;;2600473;22;19907;-81
2022/04/18 08:03:51;;;;;;;;;;;;;;;;;;2613702;22;19968;-81
2022/04/18 08:05:14;;;;;;;;;;;;;;;;;;2595714;22;19907;-81
2022/04/18 08:06:40;;;;;;;;;;;;;;;;;;2605135;22;19994;-81
2022/04/18 08:07:50;;;;;;;;;;;;;;;;;;;;;
2022/04/18 08:08:54;;;;;;;;;;;;;;;;;;2613267;22;19911;-79
2022/04/18 08:10:04;;;;;;;;;;;;;;;;;;;;;
2022/04/18 08:11:24;;;;;;;;;;;;;;;;;;;;;
2022/04/18 08:13:45;;;;;;;;;;;;;;;;;;2608635;22;20313;-82
2022/04/18 08:15:04;;;;;;;;;;;;;;;;;;2613186;22;19941;-82
2022/04/18 08:16:11;;;;;;;;;;;;;;;;;;2595397;22;19907;-82
2022/04/18 08:17:15;;;;;;;;;;;;;;;;;;2599913;22;20299;-82
2022/04/18 08:18:25;;;;;;;;;;;;;;;;;;2583119;22;20241;-82
2022/04/18 08:20:48;;;;;;;;;;;;;;;;;;2599992;22;19911;-82
2022/04/18 08:22:02;;;;;;;;;;;;;;;;;;2613422;22;19934;-81
2022/04/18 08:23:05;;;;;;;;;;;;;;;;;;2587230;23;19907;-82
2022/04/18 08:24:15;;;;;;;;;;;;;;;;;;2573663;22;19994;-81
2022/04/18 08:25:16;;;;;;;;;;;;;;;;;;2585199;22;20239;-81
2022/04/18 08:26:22;;;;;;;;;;;;;;;;;;2596045;22;19982;-82
2022/04/18 08:27:35;;;;;;;;;;;;;;;;;;2611190;22;19918;-82
2022/04/18 08:28:51;;;;;;;;;;;;;;;;;;2613181;22;19911;-82
2022/04/18 08:29:55;;;;;;;;;;;;;;;;;;2595612;22;19907;-81
2022/04/18 08:30:55;;;;;;;;;;;;;;;;;;2595574;22;19907;-80
2022/04/18 08:31:58;;;;;;;;;;;;;;;;;;2599750;22;20035;-81
2022/04/18 08:33:01;;;;;;;;;;;;;;;;;;2613134;22;19910;-81
2022/04/18 08:34:09;;;;;;;;;;;;;;;;;;2595699;22;19990;-82
2022/04/18 08:35:12;;;;;;;;;;;;;;;;;;2588843;22;20191;-80
2022/04/18 08:36:14;;;;;;;;;;;;;;;;;;2582951;22;19915;-82
2022/04/18 08:37:45;;;;;;;;;;;;;;;;;;;;;
2022/04/18 08:39:08;;;;;;;;;;;;;;;;;;2613151;22;19990;-82
2022/04/18 08:40:21;;;;;;;;;;;;;;;;;;2595437;22;19918;-80
2022/04/18 08:41:38;;;;;;;;;;;;;;;;;;2602292;22;19919;-80
2022/04/18 08:42:41;;;;;;;;;;;;;;;;;;2613140;22;19914;-80
2022/04/18 08:43:44;;;;;;;;;;;;;;;;;;2613037;22;20211;-81
2022/04/18 08:44:52;;;;;;;;;;;;;;;;;;2612630;22;19930;-81
2022/04/18 08:45:55;;;;;;;;;;;;;;;;;;2599867;22;19942;-81
2022/04/18 08:47:02;;;;;;;;;;;;;;;;;;2583274;22;19918;-80